Time;durP1;ratioP1;P1;durP2;ratioP2;P2;SDS_P1;SDS_P2;PMS_P1;PMS_P2;Temp;Humidity;BMP_temperature;BMP_pressure;BME280_temperature;BME280_humidity;BME280_pressure;Samples;Min_cycle;Max_cycle;Signal;HPM_P1;HPM_P2
2021/10/04 00:01:05;;;;;;;0.10;0.10;;;15.10;99.90;;;;;;5089521;28;20171;-82
2021/10/04 00:03:31;;;;;;;0.10;0.10;;;15.20;99.90;;;;;;5093888;28;20795;-82
2021/10/04 00:05:56;;;;;;;0.30;0.30;;;15.10;99.90;;;;;;5084491;28;20205;-82
2021/10/04 00:08:23;;;;;;;0.10;0.10;;;15.10;99.90;;;;;;5084982;28;20691;-82
2021/10/04 00:10:49;;;;;;;0.10;0.10;;;15.00;99.90;;;;;;5083657;28;20252;-83
2021/10/04 00:13:15;;;;;;;0.10;0.10;;;15.00;99.90;;;;;;5091928;28;20196;-82
2021/10/04 00:15:40;;;;;;;0.10;0.10;;;15.00;99.90;;;;;;5080505;28;20532;-83
2021/10/04 00:18:06;;;;;;;0.03;0.03;;;15.10;99.90;;;;;;5078939;28;20259;-83
2021/10/04 00:20:32;;;;;;;0.10;0.10;;;15.10;99.90;;;;;;5089857;28;20182;-82
2021/10/04 00:22:58;;;;;;;0.10;0.10;;;15.10;99.90;;;;;;5085345;28;20210;-82
2021/10/04 00:25:24;;;;;;;0.10;0.10;;;15.20;99.90;;;;;;5092968;28;20173;-81
2021/10/04 00:27:50;;;;;;;0.10;0.10;;;15.20;99.90;;;;;;5089906;28;20196;-82
2021/10/04 00:30:17;;;;;;;0.10;0.10;;;15.10;99.90;;;;;;5089688;28;20185;-82
2021/10/04 00:32:45;;;;;;;0.10;0.10;;;15.10;99.90;;;;;;5086405;28;20181;-82
2021/10/04 00:35:14;;;;;;;0.10;0.10;;;15.10;99.90;;;;;;5096186;28;20227;-82
2021/10/04 00:37:40;;;;;;;0.10;0.10;;;15.20;99.90;;;;;;5086442;28;20181;-82
2021/10/04 00:40:08;;;;;;;0.10;0.10;;;15.20;99.90;;;;;;5094875;28;20182;-82
2021/10/04 00:42:34;;;;;;;0.10;0.10;;;15.10;99.90;;;;;;5094647;28;20198;-82
2021/10/04 00:45:00;;;;;;;0.10;0.10;;;15.10;99.90;;;;;;5093668;28;20199;-82
2021/10/04 00:47:26;;;;;;;0.10;0.10;;;15.10;99.90;;;;;;5081797;28;20732;-82
2021/10/04 00:49:52;;;;;;;0.10;0.10;;;15.10;99.90;;;;;;5086510;28;20174;-82
2021/10/04 00:52:17;;;;;;;0.10;0.10;;;15.10;99.90;;;;;;5083995;28;20178;-82
2021/10/04 00:54:43;;;;;;;0.10;0.10;;;15.00;99.90;;;;;;5088512;28;20207;-82
2021/10/04 00:57:09;;;;;;;0.00;0.00;;;15.00;99.90;;;;;;5088146;28;20239;-82
2021/10/04 00:59:34;;;;;;;0.10;0.10;;;15.00;99.90;;;;;;5079822;28;20177;-82
2021/10/04 01:02:01;;;;;;;0.10;0.10;;;15.00;99.90;;;;;;5095135;28;20206;-82
2021/10/04 01:04:27;;;;;;;0.57;0.40;;;14.90;99.90;;;;;;5077518;28;20203;-82
2021/10/04 01:06:54;;;;;;;0.10;0.10;;;14.90;99.90;;;;;;5089658;28;20693;-82
2021/10/04 01:09:19;;;;;;;0.10;0.10;;;15.00;99.90;;;;;;5072052;28;20663;-82
2021/10/04 01:11:45;;;;;;;0.23;0.23;;;14.90;99.90;;;;;;5079715;28;20185;-82
2021/10/04 01:14:11;;;;;;;0.10;0.10;;;14.90;99.90;;;;;;5088727;28;20200;-82
2021/10/04 01:16:37;;;;;;;0.10;0.10;;;14.90;99.90;;;;;;5076289;28;20568;-81
2021/10/04 01:19:02;;;;;;;0.20;0.20;;;15.00;99.90;;;;;;5079985;28;20228;-82
2021/10/04 01:21:28;;;;;;;0.10;0.10;;;14.80;99.90;;;;;;5086776;28;20538;-82
2021/10/04 01:23:54;;;;;;;0.10;0.10;;;14.80;99.90;;;;;;5078182;28;20696;-82
2021/10/04 01:26:20;;;;;;;0.10;0.10;;;14.50;99.90;;;;;;5078588;28;20257;-82
2021/10/04 01:28:46;;;;;;;0.10;0.10;;;14.50;99.90;;;;;;5089620;28;20673;-82
2021/10/04 01:31:12;;;;;;;0.17;0.10;;;14.50;99.90;;;;;;5090917;28;20181;-81
2021/10/04 01:33:38;;;;;;;0.10;0.10;;;14.40;99.90;;;;;;5089879;28;20208;-82
2021/10/04 01:36:03;;;;;;;0.10;0.10;;;14.50;99.90;;;;;;5084626;28;20186;-82
2021/10/04 01:38:29;;;;;;;0.10;0.10;;;14.60;99.90;;;;;;5083829;28;20647;-83
2021/10/04 01:40:55;;;;;;;0.00;0.00;;;14.50;99.90;;;;;;5090070;28;20253;-82
2021/10/04 01:43:20;;;;;;;0.10;0.10;;;14.50;99.90;;;;;;5083218;28;20220;-82
2021/10/04 01:45:46;;;;;;;0.10;0.10;;;14.50;99.90;;;;;;5084657;28;20275;-82
2021/10/04 01:48:12;;;;;;;0.63;0.63;;;14.30;99.90;;;;;;5083661;28;20189;-82
2021/10/04 01:50:38;;;;;;;0.20;0.20;;;14.40;99.90;;;;;;5088949;28;20196;-82
2021/10/04 01:53:06;;;;;;;0.10;0.10;;;14.50;99.90;;;;;;5082396;28;20178;-82
2021/10/04 01:55:31;;;;;;;0.10;0.10;;;14.70;99.90;;;;;;5083015;28;20184;-82
2021/10/04 01:57:57;;;;;;;0.20;0.17;;;14.40;99.90;;;;;;5087868;28;20206;-82
2021/10/04 02:00:23;;;;;;;0.53;0.10;;;14.50;99.90;;;;;;5088759;28;20196;-82
2021/10/04 02:02:52;;;;;;;0.27;0.27;;;14.40;99.90;;;;;;5085025;28;20648;-82
2021/10/04 02:05:20;;;;;;;0.10;0.10;;;14.60;99.90;;;;;;5088783;28;20227;-82
2021/10/04 02:07:47;;;;;;;0.30;0.20;;;14.60;99.90;;;;;;5087515;28;20681;-82
2021/10/04 02:10:16;;;;;;;0.20;0.20;;;14.70;99.90;;;;;;5085835;28;20199;-82
2021/10/04 02:12:42;;;;;;;0.10;0.10;;;14.70;99.90;;;;;;5084262;28;20558;-82
2021/10/04 02:15:09;;;;;;;0.13;0.13;;;14.60;99.90;;;;;;5087822;28;20204;-82
2021/10/04 02:17:34;;;;;;;0.10;0.10;;;14.60;99.90;;;;;;5094618;28;20182;-82
2021/10/04 02:20:02;;;;;;;0.10;0.10;;;14.70;99.90;;;;;;5079637;28;20182;-82
2021/10/04 02:22:27;;;;;;;0.10;0.10;;;14.70;99.90;;;;;;5091495;28;20216;-82
2021/10/04 02:24:53;;;;;;;0.20;0.20;;;14.70;99.90;;;;;;5086901;28;20204;-82
2021/10/04 02:27:18;;;;;;;0.10;0.10;;;14.60;99.90;;;;;;5080975;28;20193;-81
2021/10/04 02:29:44;;;;;;;0.10;0.10;;;14.60;99.90;;;;;;5084204;28;20621;-82
2021/10/04 02:32:10;;;;;;;0.10;0.10;;;14.60;99.90;;;;;;5084623;28;20272;-82
2021/10/04 02:34:35;;;;;;;0.10;0.10;;;14.70;99.90;;;;;;5074147;28;20227;-82
2021/10/04 02:37:02;;;;;;;0.07;0.07;;;14.70;99.90;;;;;;5087630;28;20185;-82
2021/10/04 02:39:27;;;;;;;0.03;0.03;;;14.60;99.90;;;;;;5083493;28;20189;-82
2021/10/04 02:41:53;;;;;;;0.17;0.13;;;14.50;99.90;;;;;;5087049;28;20204;-82
2021/10/04 02:44:19;;;;;;;0.10;0.10;;;14.60;99.90;;;;;;5088067;28;20198;-82
2021/10/04 02:46:45;;;;;;;0.10;0.10;;;14.60;99.90;;;;;;5089226;28;20180;-83
2021/10/04 02:49:12;;;;;;;0.10;0.10;;;14.60;99.90;;;;;;5082412;28;20655;-82
2021/10/04 02:51:37;;;;;;;0.00;0.00;;;14.60;99.90;;;;;;5086343;28;20207;-82
2021/10/04 02:54:04;;;;;;;0.10;0.10;;;14.60;99.90;;;;;;5099720;28;20236;-82
2021/10/04 02:56:30;;;;;;;0.10;0.10;;;14.60;99.90;;;;;;5086658;28;20182;-82
2021/10/04 02:58:55;;;;;;;0.10;0.10;;;14.70;99.90;;;;;;5080045;28;20180;-82
2021/10/04 03:01:21;;;;;;;0.10;0.10;;;14.70;99.90;;;;;;5082305;28;20187;-82
2021/10/04 03:03:47;;;;;;;0.00;0.00;;;14.70;99.90;;;;;;5086439;28;20216;-82
2021/10/04 03:06:12;;;;;;;0.10;0.10;;;14.60;99.90;;;;;;5087113;28;20186;-82
2021/10/04 03:08:38;;;;;;;0.10;0.10;;;14.60;99.90;;;;;;5086011;28;20239;-82
2021/10/04 03:11:04;;;;;;;0.10;0.10;;;14.70;99.90;;;;;;5090429;28;20180;-82
2021/10/04 03:13:30;;;;;;;0.10;0.10;;;14.60;99.90;;;;;;5088882;28;20211;-82
2021/10/04 03:15:55;;;;;;;0.10;0.10;;;14.60;99.90;;;;;;5091476;28;20768;-82
2021/10/04 03:18:21;;;;;;;0.10;0.10;;;14.70;99.90;;;;;;5093603;28;20215;-82
2021/10/04 03:20:47;;;;;;;0.10;0.10;;;14.60;99.90;;;;;;5089364;28;20567;-82
2021/10/04 03:23:13;;;;;;;0.10;0.10;;;14.30;99.90;;;;;;5093887;28;20270;-82
2021/10/04 03:25:38;;;;;;;0.10;0.10;;;14.30;99.90;;;;;;5092015;28;20205;-82
2021/10/04 03:28:04;;;;;;;0.10;0.10;;;14.30;99.90;;;;;;5089596;28;20202;-82
2021/10/04 03:30:30;;;;;;;0.10;0.10;;;14.10;99.90;;;;;;5094581;28;20180;-82
2021/10/04 03:32:56;;;;;;;0.10;0.10;;;14.10;99.90;;;;;;5081910;28;20184;-82
2021/10/04 03:35:22;;;;;;;0.10;0.10;;;14.20;99.90;;;;;;5093383;28;20214;-82
2021/10/04 03:37:47;;;;;;;0.10;0.10;;;14.30;99.90;;;;;;5100097;28;20238;-82
2021/10/04 03:40:13;;;;;;;0.10;0.10;;;14.30;99.90;;;;;;5067735;28;20200;-82
2021/10/04 03:42:39;;;;;;;0.10;0.10;;;14.30;99.90;;;;;;5090388;28;20215;-82
2021/10/04 03:45:06;;;;;;;0.10;0.10;;;14.10;99.90;;;;;;5094463;28;20257;-82
2021/10/04 03:47:32;;;;;;;0.20;0.20;;;14.10;99.90;;;;;;5089142;28;20187;-82
2021/10/04 03:49:57;;;;;;;0.10;0.10;;;14.20;99.90;;;;;;5091153;28;20263;-82
2021/10/04 03:52:23;;;;;;;0.10;0.10;;;14.30;99.90;;;;;;5097834;28;20263;-82
2021/10/04 03:54:49;;;;;;;0.10;0.10;;;14.30;99.90;;;;;;5097365;28;20209;-82
2021/10/04 03:57:15;;;;;;;0.10;0.10;;;14.30;99.90;;;;;;5091654;28;20197;-82
2021/10/04 03:59:41;;;;;;;0.10;0.10;;;14.40;99.90;;;;;;5086472;28;20668;-82
2021/10/04 04:02:07;;;;;;;0.30;0.20;;;14.40;99.90;;;;;;5093165;28;20197;-82
2021/10/04 04:04:32;;;;;;;0.10;0.10;;;14.20;99.90;;;;;;5086774;28;20206;-82
2021/10/04 04:06:58;;;;;;;0.10;0.10;;;14.30;99.90;;;;;;5071912;28;20238;-82
2021/10/04 04:09:24;;;;;;;0.17;0.17;;;14.40;99.90;;;;;;5088238;28;20195;-82
2021/10/04 04:11:49;;;;;;;0.20;0.20;;;14.50;99.90;;;;;;5093510;28;20690;-82
2021/10/04 04:14:15;;;;;;;0.10;0.10;;;14.50;99.90;;;;;;5094846;28;20201;-81
2021/10/04 04:16:41;;;;;;;0.03;0.03;;;14.50;99.90;;;;;;5089780;28;20562;-82
2021/10/04 04:19:06;;;;;;;0.20;0.20;;;14.40;99.90;;;;;;5086793;28;20193;-82
2021/10/04 04:21:34;;;;;;;0.10;0.10;;;14.50;99.90;;;;;;5088942;28;20695;-82
2021/10/04 04:23:59;;;;;;;0.20;0.20;;;14.50;99.90;;;;;;5073115;28;20199;-82
2021/10/04 04:26:25;;;;;;;0.10;0.10;;;14.50;99.90;;;;;;5088908;28;20188;-82
2021/10/04 04:28:50;;;;;;;0.20;0.20;;;14.60;99.90;;;;;;5092113;28;20192;-82
2021/10/04 04:31:16;;;;;;;0.20;0.20;;;14.50;99.90;;;;;;5105925;28;20178;-82
2021/10/04 04:33:42;;;;;;;0.20;0.20;;;14.50;99.90;;;;;;5087022;28;20286;-82
2021/10/04 04:36:07;;;;;;;0.10;0.10;;;14.50;99.90;;;;;;5095305;28;20276;-81
2021/10/04 04:38:33;;;;;;;0.10;0.10;;;14.40;99.90;;;;;;5091465;28;20184;-82
2021/10/04 04:40:59;;;;;;;0.13;0.13;;;14.40;99.90;;;;;;5083524;28;20181;-82
2021/10/04 04:43:24;;;;;;;0.10;0.10;;;14.50;99.90;;;;;;5093001;28;20227;-82
2021/10/04 04:45:50;;;;;;;0.10;0.10;;;14.60;99.90;;;;;;5079628;28;20175;-83
2021/10/04 04:48:15;;;;;;;0.10;0.10;;;14.60;99.90;;;;;;5090578;28;20182;-83
2021/10/04 04:50:41;;;;;;;0.10;0.10;;;14.50;99.90;;;;;;5095141;28;20180;-82
2021/10/04 04:53:06;;;;;;;0.40;0.23;;;14.30;99.90;;;;;;5089767;28;20259;-83
2021/10/04 04:55:33;;;;;;;0.10;0.10;;;14.30;99.90;;;;;;5087337;28;20173;-82
2021/10/04 04:57:58;;;;;;;0.10;0.10;;;14.40;99.90;;;;;;5077523;28;20251;-82
2021/10/04 05:00:24;;;;;;;0.20;0.20;;;14.50;99.90;;;;;;5077708;28;20272;-83
2021/10/04 05:02:50;;;;;;;0.20;0.20;;;14.50;99.90;;;;;;5088096;28;20199;-82
2021/10/04 05:05:18;;;;;;;0.20;0.20;;;14.60;99.90;;;;;;5098935;28;20205;-82
2021/10/04 05:07:44;;;;;;;0.20;0.20;;;14.60;99.90;;;;;;5091805;28;20179;-82
2021/10/04 05:10:09;;;;;;;0.10;0.10;;;14.70;99.90;;;;;;5079826;28;20185;-82
2021/10/04 05:12:35;;;;;;;0.37;0.20;;;14.80;99.90;;;;;;5077979;28;20183;-84
2021/10/04 05:15:01;;;;;;;0.33;0.33;;;14.70;99.90;;;;;;5088987;28;20262;-83
2021/10/04 05:17:27;;;;;;;2.13;0.30;;;14.70;99.90;;;;;;5080289;28;20181;-84
2021/10/04 05:19:52;;;;;;;0.30;0.30;;;14.60;99.90;;;;;;5086883;28;20185;-84
2021/10/04 05:22:20;;;;;;;0.10;0.10;;;14.50;99.90;;;;;;5081607;28;20205;-83
2021/10/04 05:24:46;;;;;;;0.10;0.10;;;14.60;99.90;;;;;;5086037;28;20202;-83
2021/10/04 05:27:11;;;;;;;0.20;0.20;;;14.50;99.90;;;;;;5078173;28;20231;-82
2021/10/04 05:29:38;;;;;;;0.20;0.20;;;14.50;99.90;;;;;;5092155;28;20173;-82
2021/10/04 05:32:05;;;;;;;0.10;0.10;;;14.50;99.90;;;;;;5075565;28;20185;-83
2021/10/04 05:34:31;;;;;;;0.10;0.10;;;14.50;99.90;;;;;;5091836;28;20201;-83
2021/10/04 05:36:57;;;;;;;0.10;0.10;;;14.50;99.90;;;;;;5079845;28;20208;-83
2021/10/04 05:39:22;;;;;;;0.50;0.50;;;14.50;99.90;;;;;;5075810;28;20669;-83
2021/10/04 05:41:48;;;;;;;0.30;0.30;;;14.50;99.90;;;;;;5083156;28;20647;-83
2021/10/04 05:44:13;;;;;;;0.17;0.17;;;14.60;99.90;;;;;;5077525;28;20274;-83
2021/10/04 05:46:39;;;;;;;0.97;0.40;;;14.70;99.90;;;;;;5087948;28;20182;-83
2021/10/04 05:49:04;;;;;;;0.10;0.10;;;14.70;99.90;;;;;;5091340;28;20205;-82
2021/10/04 05:51:30;;;;;;;0.20;0.20;;;14.70;99.90;;;;;;5079496;28;20173;-83
2021/10/04 05:53:56;;;;;;;0.20;0.20;;;14.70;99.90;;;;;;5083704;28;20197;-83
2021/10/04 05:56:21;;;;;;;0.30;0.30;;;14.70;99.90;;;;;;5091194;28;20180;-83
2021/10/04 05:58:47;;;;;;;0.27;0.10;;;14.60;99.90;;;;;;5089027;28;20169;-83
2021/10/04 06:01:13;;;;;;;0.17;0.17;;;14.60;99.90;;;;;;5088903;28;20177;-83
2021/10/04 06:03:38;;;;;;;0.20;0.20;;;14.60;99.90;;;;;;5082989;28;20208;-83
2021/10/04 06:06:04;;;;;;;0.27;0.27;;;14.60;99.90;;;;;;5077878;28;20189;-83
2021/10/04 06:08:29;;;;;;;0.20;0.20;;;14.50;99.90;;;;;;5065816;28;20236;-83
2021/10/04 06:10:55;;;;;;;0.20;0.20;;;14.50;99.90;;;;;;5081237;28;20268;-83
2021/10/04 06:13:21;;;;;;;0.63;0.10;;;14.50;99.90;;;;;;5091430;28;20207;-83
2021/10/04 06:15:46;;;;;;;0.67;0.67;;;14.50;99.90;;;;;;5080816;28;20211;-83
2021/10/04 06:18:12;;;;;;;0.40;0.40;;;14.50;99.90;;;;;;5080506;28;20189;-82
2021/10/04 06:20:42;;;;;;;0.20;0.20;;;14.60;99.90;;;;;;5070291;28;20181;-83
2021/10/04 06:23:08;;;;;;;0.13;0.10;;;14.50;99.90;;;;;;5065772;28;20205;-82
2021/10/04 06:25:35;;;;;;;0.63;0.20;;;14.60;99.90;;;;;;5070861;28;20674;-82
2021/10/04 06:28:01;;;;;;;0.10;0.10;;;14.60;99.90;;;;;;5080338;28;20193;-82
2021/10/04 06:30:27;;;;;;;0.10;0.10;;;14.60;99.90;;;;;;5072832;28;20188;-82
2021/10/04 06:32:52;;;;;;;0.10;0.10;;;14.60;99.90;;;;;;5061914;28;20272;-82
2021/10/04 06:35:18;;;;;;;0.10;0.10;;;14.70;99.90;;;;;;5069510;28;20220;-83
2021/10/04 06:37:44;;;;;;;0.10;0.10;;;14.70;99.90;;;;;;5073237;28;20191;-83
2021/10/04 06:40:11;;;;;;;0.10;0.10;;;14.70;99.90;;;;;;5073578;28;20661;-82
2021/10/04 06:42:37;;;;;;;0.23;0.13;;;14.70;99.90;;;;;;5067710;28;20201;-83
2021/10/04 06:45:03;;;;;;;0.10;0.10;;;14.70;99.90;;;;;;5076798;28;20241;-83
2021/10/04 06:47:28;;;;;;;0.00;0.00;;;14.80;99.90;;;;;;5098738;28;20181;-83
2021/10/04 06:49:54;;;;;;;0.30;0.27;;;14.70;99.90;;;;;;5089511;28;20646;-83
2021/10/04 06:52:20;;;;;;;0.50;0.50;;;14.60;99.90;;;;;;5081980;28;20192;-83
2021/10/04 06:54:45;;;;;;;0.20;0.20;;;14.70;99.90;;;;;;5086816;28;20287;-83
2021/10/04 06:57:11;;;;;;;0.20;0.20;;;14.80;99.90;;;;;;5076903;28;20184;-83
2021/10/04 06:59:37;;;;;;;0.10;0.10;;;14.80;99.90;;;;;;5075628;28;20179;-83
2021/10/04 07:02:03;;;;;;;0.10;0.10;;;14.90;99.90;;;;;;5082386;28;20234;-83
2021/10/04 07:04:29;;;;;;;0.17;0.17;;;14.90;99.90;;;;;;5067664;28;20198;-83
2021/10/04 07:06:55;;;;;;;0.10;0.10;;;14.90;99.90;;;;;;5083231;28;20271;-83
2021/10/04 07:09:20;;;;;;;0.20;0.20;;;14.90;99.90;;;;;;5071367;28;20182;-82
2021/10/04 07:11:46;;;;;;;0.20;0.20;;;14.90;99.90;;;;;;5073518;28;20660;-82
2021/10/04 07:14:12;;;;;;;0.20;0.20;;;15.00;99.90;;;;;;5083678;28;20228;-82
2021/10/04 07:16:37;;;;;;;0.47;0.47;;;15.00;99.90;;;;;;5090284;28;20188;-82
2021/10/04 07:19:03;;;;;;;0.10;0.10;;;15.00;99.90;;;;;;5084894;28;20187;-82
2021/10/04 07:21:30;;;;;;;0.10;0.10;;;15.00;99.90;;;;;;5099300;28;20325;-83
2021/10/04 07:23:56;;;;;;;0.17;0.17;;;15.10;99.90;;;;;;5103659;28;20281;-83
2021/10/04 07:26:23;;;;;;;0.10;0.10;;;15.00;99.90;;;;;;5092243;28;20212;-83
2021/10/04 07:28:49;;;;;;;0.13;0.13;;;15.10;99.90;;;;;;5085335;28;20207;-83
2021/10/04 07:31:15;;;;;;;0.10;0.10;;;15.20;99.90;;;;;;5090319;28;20247;-83
2021/10/04 07:33:41;;;;;;;0.00;0.00;;;15.20;99.90;;;;;;5079695;28;20710;-83
2021/10/04 07:36:06;;;;;;;0.53;0.37;;;15.30;99.90;;;;;;5079396;28;20186;-82
2021/10/04 07:38:36;;;;;;;0.60;0.30;;;15.30;99.90;;;;;;5091785;28;20243;-83
2021/10/04 07:41:04;;;;;;;0.20;0.20;;;15.40;99.90;;;;;;5090630;28;20184;-83
2021/10/04 07:43:31;;;;;;;0.20;0.13;;;15.50;99.90;;;;;;5100601;28;20212;-83
2021/10/04 07:45:57;;;;;;;0.40;0.20;;;15.40;99.90;;;;;;5099163;28;20180;-81
2021/10/04 07:48:23;;;;;;;0.20;0.20;;;15.40;99.90;;;;;;5099846;28;20459;-83
2021/10/04 07:50:49;;;;;;;0.20;0.20;;;15.50;99.90;;;;;;5092116;28;20194;-83
2021/10/04 07:53:14;;;;;;;1.67;0.27;;;15.50;99.90;;;;;;5073225;28;20213;-83
2021/10/04 07:55:40;;;;;;;0.50;0.50;;;15.60;99.90;;;;;;5070437;28;20219;-83
2021/10/04 07:58:06;;;;;;;0.10;0.10;;;15.60;99.90;;;;;;5092168;28;20210;-83
2021/10/04 08:00:32;;;;;;;0.20;0.20;;;15.60;99.90;;;;;;5084387;28;20258;-83
2021/10/04 08:02:58;;;;;;;1.70;1.50;;;15.60;99.90;;;;;;5103724;28;20188;-83
2021/10/04 08:05:24;;;;;;;0.10;0.10;;;15.50;99.90;;;;;;5094239;28;20182;-83
2021/10/04 08:07:49;;;;;;;0.83;0.37;;;15.60;99.90;;;;;;5104007;28;20177;-83
2021/10/04 08:10:16;;;;;;;0.10;0.10;;;15.70;99.90;;;;;;5091832;28;20190;-83
2021/10/04 08:12:41;;;;;;;0.10;0.10;;;15.70;99.90;;;;;;5077393;28;20294;-83
2021/10/04 08:15:08;;;;;;;0.10;0.10;;;15.80;99.90;;;;;;5081338;28;20209;-83
2021/10/04 08:17:34;;;;;;;0.10;0.10;;;16.00;99.90;;;;;;5101185;28;20191;-83
2021/10/04 08:20:00;;;;;;;0.10;0.10;;;16.00;99.90;;;;;;5086293;28;20196;-83
2021/10/04 08:22:27;;;;;;;0.10;0.10;;;16.10;99.90;;;;;;5076134;28;20216;-83
2021/10/04 08:24:53;;;;;;;0.10;0.10;;;16.10;99.90;;;;;;5076666;28;20208;-83
2021/10/04 08:27:19;;;;;;;0.23;0.23;;;16.20;99.90;;;;;;5071672;28;20226;-82
2021/10/04 08:29:46;;;;;;;0.10;0.10;;;16.40;99.90;;;;;;5082098;28;20195;-83
2021/10/04 08:32:12;;;;;;;0.20;0.20;;;16.50;99.90;;;;;;5094428;28;20740;-83
2021/10/04 08:34:37;;;;;;;0.10;0.10;;;16.50;99.90;;;;;;5068927;28;20219;-84
2021/10/04 08:37:03;;;;;;;0.30;0.30;;;16.60;99.90;;;;;;5067790;28;20198;-83
2021/10/04 08:39:30;;;;;;;0.43;0.43;;;16.60;99.90;;;;;;5067733;28;20196;-83
2021/10/04 08:41:56;;;;;;;0.40;0.40;;;16.60;99.90;;;;;;5074412;28;20214;-83
2021/10/04 08:44:23;;;;;;;0.20;0.20;;;16.60;99.90;;;;;;5087585;28;20207;-83
2021/10/04 08:46:48;;;;;;;0.30;0.30;;;16.60;99.90;;;;;;5082377;28;20193;-84
2021/10/04 08:49:17;;;;;;;0.10;0.10;;;16.50;99.90;;;;;;5083321;28;20248;-83
2021/10/04 08:51:45;;;;;;;0.17;0.17;;;16.60;99.90;;;;;;5077250;28;20179;-83
2021/10/04 08:54:12;;;;;;;0.17;0.17;;;16.50;99.90;;;;;;5081018;28;20585;-83
2021/10/04 08:56:39;;;;;;;0.20;0.17;;;16.60;99.90;;;;;;5075361;28;20640;-84
2021/10/04 08:59:05;;;;;;;0.20;0.20;;;16.60;99.90;;;;;;5071629;28;20210;-83
2021/10/04 09:01:30;;;;;;;0.93;0.40;;;16.60;99.90;;;;;;5082258;28;20287;-83
2021/10/04 09:04:01;;;;;;;1.50;0.37;;;16.60;99.90;;;;;;5084732;28;20219;-83
2021/10/04 09:06:31;;;;;;;0.37;0.37;;;16.50;99.90;;;;;;5069632;28;20203;-83
2021/10/04 09:08:59;;;;;;;0.20;0.20;;;16.40;99.90;;;;;;5089339;28;20270;-83
2021/10/04 09:11:49;;;;;;;0.40;0.40;;;16.40;99.90;;;;;;5077256;28;20199;-83
2021/10/04 09:14:27;;;;;;;0.33;0.33;;;16.50;99.90;;;;;;5080077;28;20297;-83
2021/10/04 09:17:11;;;;;;;0.10;0.10;;;16.60;99.90;;;;;;5078391;28;20233;-83
2021/10/04 09:19:39;;;;;;;2.33;0.20;;;16.60;99.90;;;;;;5070105;28;20242;-83
2021/10/04 09:22:11;;;;;;;0.40;0.40;;;16.70;99.90;;;;;;5079166;28;20221;-83
2021/10/04 09:24:58;;;;;;;0.20;0.20;;;16.70;99.90;;;;;;5073607;28;20934;-84
2021/10/04 09:27:33;;;;;;;0.30;0.30;;;16.70;99.90;;;;;;5094921;28;20209;-82
2021/10/04 09:30:02;;;;;;;0.10;0.10;;;16.70;99.90;;;;;;5078722;28;20186;-83
2021/10/04 09:32:38;;;;;;;0.27;0.27;;;16.80;99.90;;;;;;5065790;28;20216;-83
2021/10/04 09:35:17;;;;;;;0.23;0.23;;;16.90;99.90;;;;;;5073854;28;20736;-83
2021/10/04 09:37:45;;;;;;;3.27;0.30;;;16.90;99.90;;;;;;5073492;28;20731;-83
2021/10/04 09:40:31;;;;;;;0.20;0.20;;;17.10;99.90;;;;;;5061183;28;20552;-83
2021/10/04 09:42:57;;;;;;;0.20;0.20;;;17.00;99.90;;;;;;5071797;28;20663;-83
2021/10/04 09:45:23;;;;;;;0.30;0.30;;;17.10;99.90;;;;;;5073882;28;20592;-83
2021/10/04 09:47:50;;;;;;;0.50;0.50;;;17.00;99.90;;;;;;5081161;28;20266;-82
2021/10/04 09:50:23;;;;;;;0.23;0.20;;;16.80;99.90;;;;;;5074554;28;20206;-82
2021/10/04 09:52:51;;;;;;;0.10;0.10;;;16.80;99.90;;;;;;5063984;28;20195;-83
2021/10/04 09:55:20;;;;;;;0.13;0.13;;;16.80;99.90;;;;;;5075289;28;20210;-83
2021/10/04 09:58:05;;;;;;;1.27;0.53;;;16.70;99.90;;;;;;5088727;28;20191;-83
2021/10/04 10:00:35;;;;;;;0.30;0.30;;;16.90;99.90;;;;;;5072765;28;20198;-83
2021/10/04 10:03:02;;;;;;;0.10;0.10;;;16.90;99.90;;;;;;5078078;28;20201;-83
2021/10/04 10:05:34;;;;;;;0.20;0.20;;;17.00;99.90;;;;;;5064194;28;20188;-83
2021/10/04 10:08:00;;;;;;;0.10;0.10;;;17.10;99.90;;;;;;5077043;28;20177;-83
2021/10/04 10:10:26;;;;;;;0.37;0.20;;;17.20;99.90;;;;;;5077425;28;20749;-83
2021/10/04 10:12:51;;;;;;;0.73;0.20;;;17.30;99.90;;;;;;5075464;28;20188;-83
2021/10/04 10:15:30;;;;;;;0.40;0.40;;;17.40;99.90;;;;;;5076365;28;20222;-83
2021/10/04 10:18:03;;;;;;;0.20;0.20;;;17.40;99.90;;;;;;5080496;28;20187;-84
2021/10/04 10:20:31;;;;;;;0.10;0.10;;;17.30;99.90;;;;;;5082874;28;20288;-84
2021/10/04 10:22:57;;;;;;;0.87;0.33;;;17.30;99.90;;;;;;5074085;28;20204;-84
2021/10/04 10:25:52;;;;;;;0.43;0.43;;;17.30;99.90;;;;;;5071399;28;20239;-83
2021/10/04 10:28:32;;;;;;;0.60;0.20;;;17.40;99.90;;;;;;5061048;28;20259;-83
2021/10/04 10:30:58;;;;;;;0.10;0.10;;;17.50;99.90;;;;;;5062919;28;20223;-83
2021/10/04 10:33:42;;;;;;;0.30;0.20;;;17.50;99.90;;;;;;5079447;28;20213;-83
2021/10/04 10:36:08;;;;;;;0.20;0.20;;;17.40;99.90;;;;;;5078163;28;20607;-83
2021/10/04 10:38:56;;;;;;;0.20;0.20;;;17.20;99.90;;;;;;5086790;28;20183;-84
2021/10/04 10:41:22;;;;;;;0.17;0.17;;;17.30;99.90;;;;;;5089157;28;20813;-84
2021/10/04 10:44:12;;;;;;;0.10;0.10;;;17.40;99.90;;;;;;5088894;28;20295;-84
2021/10/04 10:46:51;;;;;;;0.40;0.40;;;17.30;99.90;;;;;;5079220;28;20176;-84
2021/10/04 10:50:11;;;;;;;0.10;0.10;;;17.20;99.90;;;;;;5077770;28;20183;-83
2021/10/04 10:52:39;;;;;;;0.13;0.13;;;17.10;99.90;;;;;;4984475;28;20238;-84
2021/10/04 10:55:20;;;;;;;0.10;0.10;;;17.10;99.90;;;;;;5060223;28;20219;-83
2021/10/04 10:57:48;;;;;;;0.20;0.20;;;17.00;99.90;;;;;;5088523;28;20196;-83
2021/10/04 11:00:32;;;;;;;0.10;0.10;;;17.00;99.90;;;;;;5076278;28;20181;-83
2021/10/04 11:03:14;;;;;;;0.10;0.10;;;16.90;99.90;;;;;;5077335;28;20198;-83
2021/10/04 11:05:43;;;;;;;0.20;0.20;;;17.00;99.90;;;;;;5086537;28;20251;-83
2021/10/04 11:08:14;;;;;;;0.10;0.10;;;16.90;99.90;;;;;;5076917;28;20324;-83
2021/10/04 11:10:49;;;;;;;0.20;0.20;;;17.10;99.90;;;;;;5073305;28;20179;-83
2021/10/04 11:13:33;;;;;;;0.17;0.17;;;17.10;99.90;;;;;;5075868;28;20544;-83
2021/10/04 11:16:19;;;;;;;0.20;0.20;;;17.20;99.90;;;;;;5071904;28;20689;-83
2021/10/04 11:18:47;;;;;;;0.20;0.20;;;17.30;99.90;;;;;;5074589;28;20299;-84
2021/10/04 11:21:19;;;;;;;0.10;0.10;;;17.30;99.90;;;;;;5073681;28;20203;-83
2021/10/04 11:23:50;;;;;;;0.20;0.20;;;17.40;99.90;;;;;;5077996;28;20219;-83
2021/10/04 11:26:20;;;;;;;0.20;0.20;;;17.50;99.90;;;;;;5076275;28;20206;-83
2021/10/04 11:28:52;;;;;;;0.10;0.10;;;17.60;99.90;;;;;;5074371;28;20564;-83
2021/10/04 11:31:20;;;;;;;0.20;0.20;;;17.70;99.90;;;;;;5077939;28;20192;-83
2021/10/04 11:33:51;;;;;;;0.10;0.10;;;17.80;99.90;;;;;;5087305;28;20412;-83
2021/10/04 11:36:20;;;;;;;0.10;0.10;;;18.00;99.90;;;;;;5087599;28;20227;-84
2021/10/04 11:38:47;;;;;;;0.10;0.10;;;18.00;99.90;;;;;;5087839;28;20195;-83
2021/10/04 11:41:13;;;;;;;0.20;0.20;;;18.10;99.90;;;;;;5091482;28;20561;-83
2021/10/04 11:43:43;;;;;;;0.10;0.10;;;18.30;99.90;;;;;;5090906;28;20222;-84
2021/10/04 11:46:21;;;;;;;0.30;0.30;;;18.40;99.90;;;;;;5097881;28;20186;-84
2021/10/04 11:48:47;;;;;;;0.20;0.20;;;18.40;99.90;;;;;;5093010;28;20183;-84
2021/10/04 11:51:26;;;;;;;0.30;0.27;;;18.60;99.90;;;;;;5090111;28;20188;-83
2021/10/04 11:53:52;;;;;;;0.10;0.10;;;18.80;99.90;;;;;;5087864;28;20274;-84
2021/10/04 11:56:19;;;;;;;0.20;0.20;;;18.90;99.90;;;;;;5084107;28;20191;-83
2021/10/04 11:58:48;;;;;;;0.10;0.10;;;18.90;99.90;;;;;;5073827;28;20193;-83
2021/10/04 12:01:25;;;;;;;0.20;0.20;;;18.90;99.90;;;;;;5076503;28;20190;-83
2021/10/04 12:03:58;;;;;;;0.30;0.30;;;18.90;99.90;;;;;;5066894;28;20299;-84
2021/10/04 12:06:28;;;;;;;0.10;0.10;;;18.90;99.90;;;;;;5085571;28;20222;-83
2021/10/04 12:08:53;;;;;;;0.20;0.20;;;18.80;99.90;;;;;;5085312;28;20649;-83
2021/10/04 12:11:19;;;;;;;0.30;0.23;;;18.90;99.90;;;;;;5070086;28;20192;-83
2021/10/04 12:13:45;;;;;;;0.30;0.30;;;18.70;99.90;;;;;;5073427;28;20701;-83
2021/10/04 12:16:13;;;;;;;0.30;0.30;;;18.60;99.90;;;;;;5086000;28;20224;-85
2021/10/04 12:18:49;;;;;;;0.10;0.10;;;18.50;99.90;;;;;;5083979;28;20186;-84
2021/10/04 12:21:22;;;;;;;0.10;0.10;;;18.50;99.90;;;;;;5086098;28;20195;-84
2021/10/04 12:24:07;;;;;;;0.20;0.20;;;18.40;99.90;;;;;;5082700;28;20226;-84
2021/10/04 12:26:59;;;;;;;0.10;0.10;;;18.40;99.90;;;;;;5084767;28;20191;-85
2021/10/04 12:29:40;;;;;;;0.10;0.10;;;18.50;99.90;;;;;;5082953;28;20208;-84
2021/10/04 12:32:22;;;;;;;0.10;0.10;;;18.60;99.90;;;;;;5080441;28;20334;-84
2021/10/04 12:35:07;;;;;;;0.10;0.10;;;18.60;99.90;;;;;;5088007;28;20257;-85
2021/10/04 12:37:45;;;;;;;0.10;0.10;;;18.50;99.90;;;;;;5085924;28;20648;-84
2021/10/04 12:40:30;;;;;;;0.13;0.13;;;18.50;99.90;;;;;;5081300;28;20180;-84
2021/10/04 12:43:03;;;;;;;0.10;0.10;;;18.60;99.90;;;;;;5077970;28;20208;-84
2021/10/04 12:45:29;;;;;;;0.10;0.10;;;18.70;99.90;;;;;;5074279;28;20195;-89
2021/10/04 12:48:03;;;;;;;0.10;0.10;;;18.70;99.90;;;;;;5074737;28;20180;-83
2021/10/04 12:50:35;;;;;;;0.13;0.13;;;18.70;99.90;;;;;;5088151;28;20583;-83
2021/10/04 12:53:16;;;;;;;0.10;0.10;;;18.80;99.90;;;;;;5074987;28;20183;-83